Time;durP1;ratioP1;P1;durP2;ratioP2;P2;SDS_P1;SDS_P2;PMS_P1;PMS_P2;Temp;Humidity;BMP_temperature;BMP_pressure;BME280_temperature;BME280_humidity;BME280_pressure;Samples;Min_cycle;Max_cycle;Signal;HPM_P1;HPM_P2
2022/07/27 00:01:15;;;;;;;9.02;6.55;;;;;;;20.42;69.21;99027.28;4458697;32;35873;-79
2022/07/27 00:03:44;;;;;;;9.13;6.03;;;;;;;20.26;70.00;99029.91;4456063;32;34370;-79
2022/07/27 00:06:13;;;;;;;10.77;6.60;;;;;;;20.42;68.88;99024.63;4456188;32;33436;-80
2022/07/27 00:08:41;;;;;;;8.65;6.18;;;;;;;20.07;70.43;99035.34;4468894;32;33932;-79
2022/07/27 00:11:09;;;;;;;8.68;7.05;;;;;;;20.20;69.90;99031.09;4485655;32;36056;-79
2022/07/27 00:13:37;;;;;;;12.93;6.87;;;;;;;20.02;70.43;99037.41;4458052;32;34493;-79
2022/07/27 00:16:05;;;;;;;11.00;6.68;;;;;;;19.95;71.05;99036.03;4469033;32;33832;-79
2022/07/27 00:18:34;;;;;;;11.50;6.62;;;;;;;20.26;69.56;99036.06;4469068;32;33861;-79
2022/07/27 00:21:02;;;;;;;10.43;6.93;;;;;;;20.29;69.25;99034.16;4469767;32;35104;-79
2022/07/27 00:23:29;;;;;;;8.25;6.30;;;;;;;20.14;69.84;99036.72;4468907;32;34444;-79
2022/07/27 00:25:57;;;;;;;10.93;7.22;;;;;;;19.99;70.58;99048.13;4469988;32;33306;-79
2022/07/27 00:28:25;;;;;;;9.82;6.15;;;;;;;20.06;70.09;99041.56;4468923;32;33935;-79
2022/07/27 00:30:53;;;;;;;11.15;7.05;;;;;;;20.46;68.26;99036.72;4459823;32;35138;-81
2022/07/27 00:33:21;;;;;;;11.32;6.70;;;;;;;20.13;69.61;99042.09;4468626;32;34282;-80
2022/07/27 00:35:49;;;;;;;9.32;7.32;;;;;;;20.26;69.23;99038.69;4467901;32;33482;-80
2022/07/27 00:38:17;;;;;;;8.82;6.37;;;;;;;19.94;70.37;99039.59;4467906;32;33700;-79
2022/07/27 00:40:45;;;;;;;9.50;6.70;;;;;;;20.12;69.72;99041.25;4468613;32;35212;-79
2022/07/27 00:43:14;;;;;;;10.02;7.22;;;;;;;20.18;69.36;99032.97;4468546;32;34480;-79
2022/07/27 00:45:41;;;;;;;10.02;6.60;;;;;;;19.85;70.05;99035.66;4469574;32;33101;-79
2022/07/27 00:48:10;;;;;;;11.88;6.72;;;;;;;20.08;69.61;99035.28;4468612;32;33915;-79
2022/07/27 00:50:40;;;;;;;10.90;6.90;;;;;;;19.92;70.36;99033.53;4454701;32;34331;-79
2022/07/27 00:53:08;;;;;;;10.82;6.93;;;;;;;19.35;72.94;99032.09;4454631;32;33662;-79
2022/07/27 00:55:38;;;;;;;14.73;7.87;;;;;;;19.88;70.91;99041.63;4457587;32;32582;-79
2022/07/27 00:58:09;;;;;;;10.82;7.85;;;;;;;19.81;70.63;99036.75;4474997;32;33832;-79
2022/07/27 01:00:38;;;;;;;16.67;7.72;;;;;;;19.85;70.83;99033.00;4455968;32;35964;-79
2022/07/27 01:03:05;;;;;;;11.20;7.60;;;;;;;18.91;74.34;99037.84;4468418;32;34414;-79
2022/07/27 01:05:36;;;;;;;12.40;8.80;;;;;;;19.70;71.55;99045.22;4468426;32;32869;-79
2022/07/27 01:08:12;;;;;;;10.00;7.43;;;;;;;19.97;70.11;99050.00;4468543;32;33926;-80
2022/07/27 01:10:42;;;;;;;9.95;7.20;;;;;;;20.06;69.31;99042.41;4455461;32;35427;-79
2022/07/27 01:13:11;;;;;;;10.73;7.07;;;;;;;19.58;71.14;99040.59;4462835;32;35259;-79
2022/07/27 01:15:40;;;;;;;10.43;7.03;;;;;;;18.99;73.25;99040.06;4456447;32;33402;-79
2022/07/27 01:18:25;;;;;;;9.80;6.82;;;;;;;19.68;70.23;99049.75;4456356;32;33812;-79
2022/07/27 01:20:54;;;;;;;9.55;6.80;;;;;;;19.72;70.20;99053.94;4470459;32;35383;-79
2022/07/27 01:23:24;;;;;;;9.82;7.07;;;;;;;19.20;72.56;99052.22;4463490;32;35178;-79
2022/07/27 01:25:52;;;;;;;11.10;7.47;;;;;;;19.96;69.22;99053.56;4472888;32;33329;-80
2022/07/27 01:28:20;;;;;;;13.07;7.53;;;;;;;19.72;70.43;99050.44;4476511;32;33608;-79
2022/07/27 01:30:48;;;;;;;12.73;8.20;;;;;;;20.12;68.65;99049.19;4471270;32;34887;-79
2022/07/27 01:33:16;;;;;;;15.75;8.18;;;;;;;19.84;69.74;99041.91;4470041;32;34387;-79
2022/07/27 01:35:45;;;;;;;9.75;7.25;;;;;;;19.78;69.59;99048.34;4456709;32;34323;-79
2022/07/27 01:38:12;;;;;;;13.32;8.00;;;;;;;19.80;69.98;99054.41;4455982;32;33896;-80
2022/07/27 01:40:40;;;;;;;9.57;7.12;;;;;;;18.88;73.80;99059.09;4457133;32;34696;-79
2022/07/27 01:43:08;;;;;;;10.55;7.30;;;;;;;19.18;72.99;99056.69;4470057;32;34088;-79
2022/07/27 01:45:38;;;;;;;11.05;6.80;;;;;;;19.06;72.69;99058.19;4471186;32;33649;-79
2022/07/27 01:48:05;;;;;;;10.13;7.20;;;;;;;19.47;71.08;99063.13;4469435;32;33800;-79
2022/07/27 01:50:34;;;;;;;10.43;7.12;;;;;;;19.68;69.24;99055.87;4470068;32;34917;-80
2022/07/27 01:53:02;;;;;;;9.30;7.22;;;;;;;19.42;70.45;99048.47;4470082;32;34447;-79
2022/07/27 01:55:30;;;;;;;9.77;6.60;;;;;;;19.56;69.19;99039.84;4456375;32;33229;-79
2022/07/27 01:58:07;;;;;;;10.20;6.32;;;;;;;19.51;69.38;99038.25;4457621;32;34710;-79
2022/07/27 02:00:35;;;;;;;9.32;6.82;;;;;;;19.82;68.33;99036.69;4456307;32;35051;-79
2022/07/27 02:03:05;;;;;;;9.57;6.30;;;;;;;19.64;68.60;99042.91;4470069;32;34518;-80
2022/07/27 02:05:34;;;;;;;8.85;6.07;;;;;;;19.96;67.21;99032.44;4457380;32;34197;-80
2022/07/27 02:08:04;;;;;;;9.23;6.40;;;;;;;19.45;68.45;99033.31;4469783;32;34072;-79
2022/07/27 02:10:34;;;;;;;8.35;6.10;;;;;;;19.73;67.70;99026.59;4456521;32;34638;-79
2022/07/27 02:13:02;;;;;;;9.52;6.32;;;;;;;19.87;67.05;99034.66;4456208;32;34573;-79
2022/07/27 02:15:50;;;;;;;8.82;6.25;;;;;;;19.55;68.09;99035.47;4471009;32;34350;-79
2022/07/27 02:18:22;;;;;;;9.32;5.50;;;;;;;19.52;68.27;99032.06;4470303;32;33903;-79
2022/07/27 02:21:04;;;;;;;9.13;6.05;;;;;;;19.31;68.77;99027.91;4469803;32;34927;-81
2022/07/27 02:23:33;;;;;;;8.35;6.15;;;;;;;19.31;68.85;99033.19;4462787;32;34416;-80
2022/07/27 02:26:03;;;;;;;8.63;6.12;;;;;;;19.76;67.13;99037.00;4469956;32;33435;-79
2022/07/27 02:28:31;;;;;;;11.12;7.75;;;;;;;19.63;67.77;99033.28;4456255;32;33950;-80
2022/07/27 02:30:59;;;;;;;10.88;6.07;;;;;;;19.07;69.94;99043.19;4455879;32;34968;-79
2022/07/27 02:33:27;;;;;;;9.30;6.78;;;;;;;19.21;69.30;99045.16;4463456;32;35057;-79
2022/07/27 02:35:55;;;;;;;7.87;5.90;;;;;;;19.22;69.49;99044.19;4456944;32;33831;-79
2022/07/27 02:38:24;;;;;;;8.95;6.70;;;;;;;19.20;69.10;99035.50;4455947;32;33818;-80
2022/07/27 02:40:52;;;;;;;8.75;6.47;;;;;;;19.63;67.72;99035.94;4456229;32;34698;-79
2022/07/27 02:43:20;;;;;;;8.25;5.70;;;;;;;19.69;66.94;99036.47;4468072;32;35268;-80
2022/07/27 02:45:50;;;;;;;8.80;5.50;;;;;;;19.45;67.40;99028.03;4470754;32;33503;-79
2022/07/27 02:48:18;;;;;;;7.68;4.93;;;;;;;19.29;67.89;99029.78;4462158;32;33944;-79
2022/07/27 02:50:46;;;;;;;7.47;5.53;;;;;;;19.41;67.01;99025.63;4472023;32;35365;-79
2022/07/27 02:53:14;;;;;;;8.00;5.80;;;;;;;19.51;66.48;99032.97;4479424;32;34785;-80
2022/07/27 02:55:42;;;;;;;8.60;5.80;;;;;;;19.50;66.64;99026.00;4470656;32;33477;-80
2022/07/27 02:58:10;;;;;;;10.80;5.80;;;;;;;18.92;68.83;99034.28;4469044;32;33962;-79
2022/07/27 03:00:38;;;;;;;7.07;5.20;;;;;;;18.51;70.46;99045.03;4470527;32;35097;-79
2022/07/27 03:03:06;;;;;;;8.27;5.95;;;;;;;18.51;71.08;99045.91;4468826;32;34097;-79
2022/07/27 03:05:34;;;;;;;9.27;5.78;;;;;;;19.08;68.45;99045.75;4469779;32;33538;-79
2022/07/27 03:08:02;;;;;;;8.15;5.43;;;;;;;19.60;65.94;99044.00;4468757;32;33885;-79
2022/07/27 03:10:31;;;;;;;9.73;5.80;;;;;;;19.57;65.92;99036.25;4470399;32;36045;-79
2022/07/27 03:12:59;;;;;;;9.57;5.55;;;;;;;19.73;65.30;99037.16;4455965;32;34528;-79
2022/07/27 03:15:28;;;;;;;7.90;5.28;;;;;;;19.34;66.24;99038.28;4456629;32;34236;-78
2022/07/27 03:17:56;;;;;;;9.40;5.87;;;;;;;18.69;69.20;99048.56;4469388;32;33897;-79
2022/07/27 03:20:24;;;;;;;9.00;5.35;;;;;;;18.94;67.99;99048.25;4456571;32;35114;-79
2022/07/27 03:22:53;;;;;;;8.57;5.60;;;;;;;18.51;69.73;99039.75;4468585;32;35281;-80
2022/07/27 03:25:21;;;;;;;11.27;5.50;;;;;;;17.99;71.97;99037.78;4469264;32;33376;-79
2022/07/27 03:27:49;;;;;;;9.10;6.35;;;;;;;18.95;68.53;99036.75;4468455;32;34855;-79
2022/07/27 03:30:17;;;;;;;7.70;5.22;;;;;;;19.25;67.31;99042.28;4469541;32;35045;-79
2022/07/27 03:32:45;;;;;;;8.32;5.10;;;;;;;18.84;68.58;99041.72;4469382;32;34291;-79
2022/07/27 03:35:14;;;;;;;9.15;5.12;;;;;;;19.30;67.01;99042.88;4469330;32;33553;-80
2022/07/27 03:37:41;;;;;;;8.55;5.05;;;;;;;18.87;68.67;99041.56;4469283;32;33806;-79
2022/07/27 03:40:10;;;;;;;6.30;4.72;;;;;;;19.50;65.45;99041.84;4469450;32;34714;-79
2022/07/27 03:42:39;;;;;;;7.70;5.10;;;;;;;19.63;64.95;99043.84;4455338;32;34345;-79
2022/07/27 03:45:07;;;;;;;8.68;4.90;;;;;;;19.18;66.42;99045.28;4466487;32;32168;-79
2022/07/27 03:47:35;;;;;;;10.68;5.30;;;;;;;19.35;65.62;99047.94;4469327;32;34820;-79
2022/07/27 03:50:03;;;;;;;12.35;5.93;;;;;;;19.23;66.00;99052.03;4470227;32;35073;-79
2022/07/27 03:52:31;;;;;;;8.88;4.53;;;;;;;18.71;69.22;99046.72;4469414;32;34482;-79
2022/07/27 03:54:59;;;;;;;6.82;5.07;;;;;;;19.60;66.06;99038.72;4470174;32;33844;-79
2022/07/27 03:57:27;;;;;;;7.37;4.95;;;;;;;20.11;64.02;99042.19;4455334;32;34848;-79
2022/07/27 03:59:55;;;;;;;10.00;5.10;;;;;;;20.10;63.61;99040.47;4455597;32;33739;-79
2022/07/27 04:02:23;;;;;;;8.38;5.18;;;;;;;19.98;64.21;99041.16;4469360;32;34273;-80
2022/07/27 04:04:51;;;;;;;11.07;5.28;;;;;;;19.56;66.15;99045.12;4469184;32;33539;-79
2022/07/27 04:07:19;;;;;;;14.02;5.70;;;;;;;18.98;69.01;99049.78;4466856;32;33811;-79
2022/07/27 04:09:47;;;;;;;15.85;6.28;;;;;;;18.97;69.86;99053.38;4469020;32;34975;-79
2022/07/27 04:12:16;;;;;;;15.55;6.05;;;;;;;18.80;70.04;99061.25;4469912;32;35184;-79
2022/07/27 04:14:46;;;;;;;9.35;5.68;;;;;;;19.41;68.31;99058.19;4468863;32;34183;-80
2022/07/27 04:17:14;;;;;;;10.35;6.07;;;;;;;18.99;69.73;99050.63;4468030;32;34105;-79
2022/07/27 04:20:03;;;;;;;7.12;5.35;;;;;;;19.82;66.29;99056.97;4457725;32;36595;-81
2022/07/27 04:22:31;;;;;;;8.55;5.50;;;;;;;20.29;64.48;99065.91;4469710;32;34822;-79
2022/07/27 04:24:58;;;;;;;8.35;5.30;;;;;;;19.58;67.60;99069.66;4468776;32;33313;-81
2022/07/27 04:27:26;;;;;;;9.98;5.30;;;;;;;19.66;67.73;99067.47;4469786;32;33047;-81
2022/07/27 04:29:54;;;;;;;9.57;5.22;;;;;;;20.40;63.99;99060.84;4468731;32;35049;-81
2022/07/27 04:32:22;;;;;;;8.55;5.32;;;;;;;20.08;65.41;99068.78;4460809;32;33846;-81
2022/07/27 04:34:50;;;;;;;7.35;5.70;;;;;;;20.17;65.92;99068.28;4454324;32;33420;-80
2022/07/27 04:37:18;;;;;;;7.80;4.28;;;;;;;20.41;63.76;99065.22;4469386;32;33822;-81
2022/07/27 04:39:46;;;;;;;7.93;4.95;;;;;;;20.69;64.05;99058.41;4467959;32;35005;-79
2022/07/27 04:42:14;;;;;;;9.02;4.78;;;;;;;21.77;59.89;99053.78;4455443;32;34408;-78
2022/07/27 04:44:42;;;;;;;10.57;4.80;;;;;;;21.45;60.70;99057.53;4468518;32;33433;-80
2022/07/27 04:47:10;;;;;;;13.18;4.90;;;;;;;21.11;61.71;99057.72;4471027;32;33962;-79
2022/07/27 04:49:38;;;;;;;10.45;5.57;;;;;;;21.75;59.98;99062.78;4470311;32;35908;-80
2022/07/27 04:52:06;;;;;;;9.52;4.47;;;;;;;21.47;59.58;99059.16;4470399;32;35170;-79
2022/07/27 04:54:34;;;;;;;6.12;4.60;;;;;;;21.84;59.49;99062.22;4470312;32;34188;-80
2022/07/27 04:57:02;;;;;;;7.50;4.60;;;;;;;22.33;57.68;99069.78;4470063;32;33796;-80
2022/07/27 04:59:29;;;;;;;9.23;6.72;;;;;;;22.01;58.95;99076.25;4470207;32;34930;-79
2022/07/27 05:01:57;;;;;;;9.45;6.05;;;;;;;22.17;59.26;99066.38;4471094;32;34461;-79
2022/07/27 05:04:25;;;;;;;8.07;6.12;;;;;;;22.70;58.27;99075.38;4470333;32;33491;-79
2022/07/27 05:06:56;;;;;;;6.62;4.62;;;;;;;22.24;60.57;99077.44;4469991;32;34405;-81
2022/07/27 05:09:23;;;;;;;10.88;5.78;;;;;;;22.01;59.58;99081.53;4470169;32;35030;-79
2022/07/27 05:11:52;;;;;;;6.18;4.50;;;;;;;23.50;55.60;99071.87;4470376;32;34604;-80
2022/07/27 05:14:20;;;;;;;8.20;4.85;;;;;;;22.44;59.87;99084.16;4470329;32;33434;-79
2022/07/27 05:16:49;;;;;;;6.45;4.75;;;;;;;23.22;56.73;99079.06;4471302;32;33981;-79
2022/07/27 05:19:17;;;;;;;5.75;4.18;;;;;;;22.42;59.14;99075.44;4470272;32;35127;-80
2022/07/27 05:21:45;;;;;;;8.20;5.75;;;;;;;22.55;59.07;99080.81;4458668;32;32942;-80
2022/07/27 05:24:13;;;;;;;9.52;5.07;;;;;;;23.23;58.61;99088.72;4470937;32;32680;-80
2022/07/27 05:26:43;;;;;;;7.55;4.22;;;;;;;24.07;54.34;99083.06;4486968;32;33902;-81
2022/07/27 05:29:10;;;;;;;11.38;4.57;;;;;;;24.98;50.19;99086.19;4464696;32;35846;-80
2022/07/27 05:31:39;;;;;;;7.70;4.35;;;;;;;25.36;49.46;99084.34;4469287;32;34645;-80
2022/07/27 05:34:07;;;;;;;7.05;4.60;;;;;;;24.35;51.35;99089.91;4470113;32;33106;-80
2022/07/27 05:36:35;;;;;;;8.27;5.10;;;;;;;24.27;50.72;99095.81;4470421;32;33473;-80
2022/07/27 05:39:03;;;;;;;6.55;4.72;;;;;;;24.58;49.80;99093.59;4470122;32;35869;-80
2022/07/27 05:41:31;;;;;;;8.77;4.70;;;;;;;25.57;47.41;99095.13;4471056;32;34052;-80
2022/07/27 05:43:59;;;;;;;8.25;4.87;;;;;;;25.81;46.75;99083.56;4470288;32;34063;-80
2022/07/27 05:46:27;;;;;;;8.65;4.65;;;;;;;25.86;45.47;99092.06;4457130;32;33769;-79
2022/07/27 05:48:59;;;;;;;7.10;4.75;;;;;;;25.43;46.52;99095.34;4457197;32;35859;-79
2022/07/27 05:51:28;;;;;;;8.05;4.50;;;;;;;25.77;45.76;99098.94;4470237;32;34424;-80
2022/07/27 05:53:57;;;;;;;6.55;4.20;;;;;;;25.88;45.92;99100.78;4457270;32;34315;-80
2022/07/27 05:56:26;;;;;;;6.37;4.75;;;;;;;26.07;44.87;99102.88;4457226;32;34095;-80
2022/07/27 05:58:54;;;;;;;7.87;4.47;;;;;;;27.24;42.53;99101.44;4469435;32;34934;-80
2022/07/27 06:01:22;;;;;;;10.88;6.20;;;;;;;27.09;43.14;99105.38;4471039;32;34976;-80
2022/07/27 06:03:50;;;;;;;10.40;4.65;;;;;;;27.17;41.84;99106.44;4470727;32;33821;-80
2022/07/27 06:09:05;;;;;;;7.78;4.15;;;;;;;26.21;42.41;99112.47;4480360;32;35036;-80
2022/07/27 06:11:33;;;;;;;7.37;4.62;;;;;;;26.75;42.00;99130.38;4469965;32;34341;-80
2022/07/27 06:14:00;;;;;;;8.68;4.30;;;;;;;27.20;40.71;99122.22;4456449;32;33785;-80
2022/07/27 06:16:28;;;;;;;5.60;3.62;;;;;;;27.56;40.95;99121.97;4470857;32;33906;-80
2022/07/27 06:18:56;;;;;;;5.95;4.18;;;;;;;27.96;39.15;99134.66;4456271;32;34810;-80
2022/07/27 06:21:26;;;;;;;7.70;3.50;;;;;;;27.58;40.36;99125.34;4470839;32;34701;-80
2022/07/27 06:23:55;;;;;;;6.22;3.60;;;;;;;27.39;39.60;99126.94;4470012;32;33452;-80
2022/07/27 06:26:22;;;;;;;4.70;3.53;;;;;;;27.64;38.77;99124.84;4470033;32;34107;-80
2022/07/27 06:28:51;;;;;;;8.80;3.53;;;;;;;27.83;37.93;99117.91;4469901;32;35022;-80
2022/07/27 06:31:19;;;;;;;4.95;3.55;;;;;;;28.32;39.25;99121.69;4468441;32;34245;-80
2022/07/27 06:33:48;;;;;;;5.97;3.45;;;;;;;29.05;36.39;99116.97;4470242;32;33367;-80
2022/07/27 06:36:18;;;;;;;5.15;3.22;;;;;;;28.02;36.87;99117.19;4470765;32;33956;-80
2022/07/27 06:38:47;;;;;;;13.88;4.45;;;;;;;28.21;36.60;99117.28;4470537;32;35034;-80
2022/07/27 06:41:16;;;;;;;6.75;3.40;;;;;;;29.23;35.97;99119.81;4470618;32;34452;-79
2022/07/27 06:43:44;;;;;;;4.57;3.08;;;;;;;29.03;38.53;99112.69;4470798;32;33347;-80
2022/07/27 06:46:13;;;;;;;4.85;3.12;;;;;;;29.23;36.03;99119.81;4469441;32;34826;-81
2022/07/27 06:48:41;;;;;;;6.70;3.58;;;;;;;29.09;35.94;99112.16;4469752;32;35053;-79
2022/07/27 06:51:09;;;;;;;5.03;3.50;;;;;;;28.73;38.19;99118.03;4457014;32;33911;-80
2022/07/27 06:53:37;;;;;;;10.05;3.85;;;;;;;29.39;35.10;99113.03;4469406;32;33135;-80
2022/07/27 06:56:07;;;;;;;11.48;3.62;;;;;;;29.93;35.72;99114.22;4470622;32;33661;-80
2022/07/27 06:58:36;;;;;;;5.37;3.08;;;;;;;30.48;34.69;99110.78;4464968;32;34919;-82
2022/07/27 07:01:04;;;;;;;5.28;3.05;;;;;;;30.83;33.53;99113.66;4470675;32;34467;-79
2022/07/27 07:03:32;;;;;;;5.05;3.15;;;;;;;30.37;32.17;99116.34;4456729;32;33556;-81
2022/07/27 07:06:00;;;;;;;5.40;2.90;;;;;;;30.85;33.95;99117.03;4470355;32;34053;-79
2022/07/27 07:08:29;;;;;;;6.57;3.30;;;;;;;30.48;32.46;99118.84;4463859;32;33858;-80
2022/07/27 07:10:57;;;;;;;3.78;2.60;;;;;;;30.16;33.82;99111.16;4469039;32;34448;-80
2022/07/27 07:13:26;;;;;;;7.10;3.10;;;;;;;30.74;32.35;99104.66;4469630;32;33503;-80
2022/07/27 07:15:55;;;;;;;6.07;2.95;;;;;;;30.37;34.91;99111.81;4469484;32;34772;-79
2022/07/27 07:18:23;;;;;;;7.25;3.40;;;;;;;30.25;32.25;99107.63;4470432;32;34930;-80
2022/07/27 07:20:51;;;;;;;8.25;2.50;;;;;;;30.51;31.62;99101.56;4469572;32;34518;-79
2022/07/27 07:23:19;;;;;;;4.30;2.72;;;;;;;30.26;32.14;99111.97;4470383;32;33553;-79
2022/07/27 07:25:47;;;;;;;4.75;3.08;;;;;;;30.05;31.96;99099.63;4469554;32;34831;-80
2022/07/27 07:28:15;;;;;;;11.45;2.67;;;;;;;30.71;31.73;99102.28;4470447;32;35500;-79
2022/07/27 07:30:43;;;;;;;8.80;2.75;;;;;;;31.31;30.79;99101.72;4467867;32;34391;-81
2022/07/27 07:33:11;;;;;;;4.35;2.37;;;;;;;31.64;30.51;99096.59;4470132;32;33303;-80
2022/07/27 07:35:40;;;;;;;4.75;3.10;;;;;;;31.50;28.92;99095.31;4469440;32;34610;-79
2022/07/27 07:38:28;;;;;;;5.60;3.40;;;;;;;31.70;28.85;99088.75;4470235;32;34924;-79
2022/07/27 07:40:56;;;;;;;5.05;2.62;;;;;;;31.21;28.53;99093.72;4469383;32;35049;-79
2022/07/27 07:43:24;;;;;;;6.47;3.40;;;;;;;31.29;27.61;99087.56;4470241;32;33774;-80
2022/07/27 07:45:52;;;;;;;5.68;2.67;;;;;;;31.56;27.74;99087.47;4469379;32;34776;-80
2022/07/27 07:48:21;;;;;;;4.82;2.80;;;;;;;32.29;27.00;99091.59;4470259;32;36004;-79
2022/07/27 07:50:49;;;;;;;8.10;2.80;;;;;;;31.74;27.04;99087.41;4467138;32;34200;-79
2022/07/27 07:53:23;;;;;;;7.82;3.30;;;;;;;32.33;26.83;99085.87;4485955;32;33495;-79
2022/07/27 07:55:52;;;;;;;7.50;3.03;;;;;;;31.97;27.85;99075.28;4457925;32;34019;-79
2022/07/27 07:58:20;;;;;;;3.83;2.60;;;;;;;32.16;26.84;99085.84;4470210;32;36028;-79
2022/07/27 08:00:48;;;;;;;7.18;3.47;;;;;;;33.19;26.52;99077.53;4469150;32;35257;-79
2022/07/27 08:03:17;;;;;;;7.15;3.47;;;;;;;33.37;24.61;99082.78;4462209;32;34253;-79
2022/07/27 08:05:46;;;;;;;7.47;5.25;;;;;;;33.06;25.48;99077.16;4469063;32;33802;-82
2022/07/27 08:08:14;;;;;;;6.25;3.95;;;;;;;33.04;25.04;99074.62;4470132;32;34943;-81
2022/07/27 08:10:42;;;;;;;5.93;4.25;;;;;;;33.09;25.74;99075.97;4467936;32;34336;-80
2022/07/27 08:13:10;;;;;;;8.52;4.70;;;;;;;32.99;25.22;99076.97;4458292;32;32890;-79
2022/07/27 08:15:38;;;;;;;9.25;5.07;;;;;;;32.88;25.06;99075.47;4469145;32;33481;-79
2022/07/27 08:18:06;;;;;;;10.18;6.62;;;;;;;32.49;25.52;99081.41;4468222;32;36021;-79
2022/07/27 08:20:34;;;;;;;7.07;4.93;;;;;;;32.17;25.07;99073.19;4454690;32;34347;-79
2022/07/27 08:23:02;;;;;;;6.07;4.32;;;;;;;32.72;23.56;99074.56;4469855;32;33409;-79
2022/07/27 08:25:31;;;;;;;8.07;6.93;;;;;;;31.88;24.38;99075.22;4469052;32;33912;-79
2022/07/27 08:27:59;;;;;;;9.18;7.00;;;;;;;32.07;24.59;99068.78;4469645;32;35052;-80
2022/07/27 08:30:29;;;;;;;10.15;6.57;;;;;;;32.35;24.65;99068.56;4462266;32;182276;-79
2022/07/27 08:33:02;;;;;;;9.27;6.30;;;;;;;33.00;24.40;99062.50;4466665;32;32667;-80
2022/07/27 08:35:31;;;;;;;12.93;7.35;;;;;;;33.01;26.21;99066.03;4451200;32;33260;-81
2022/07/27 08:38:01;;;;;;;14.02;8.35;;;;;;;32.95;23.94;99064.84;4485361;32;34308;-81
2022/07/27 08:40:30;;;;;;;11.15;8.93;;;;;;;32.20;24.75;99062.94;4474175;32;35261;-80
2022/07/27 08:43:18;;;;;;;10.50;7.32;;;;;;;33.63;23.34;99058.25;4468499;32;33466;-80
2022/07/27 08:45:54;;;;;;;11.82;8.93;;;;;;;32.92;23.49;99059.78;4468681;32;33994;-82
2022/07/27 08:48:28;;;;;;;9.73;7.72;;;;;;;33.85;23.17;99063.97;4470082;32;35022;-79
2022/07/27 08:50:56;;;;;;;10.75;7.70;;;;;;;33.99;23.09;99062.41;4468566;32;34435;-78
2022/07/27 08:53:24;;;;;;;10.57;9.02;;;;;;;33.53;23.20;99057.63;4469960;32;34379;-78
2022/07/27 08:56:02;;;;;;;10.35;7.65;;;;;;;33.94;23.52;99054.00;4468671;32;34118;-78
2022/07/27 08:58:31;;;;;;;13.73;9.13;;;;;;;33.76;24.11;99052.34;4468320;32;34268;-78
2022/07/27 09:00:59;;;;;;;11.50;9.55;;;;;;;33.39;23.14;99044.78;4468527;32;35090;-78
2022/07/27 09:03:27;;;;;;;12.20;9.68;;;;;;;33.76;23.86;99052.34;4468354;32;34392;-78
2022/07/27 09:05:57;;;;;;;10.50;6.30;;;;;;;33.32;22.73;99043.78;4468324;32;33950;-78
2022/07/27 09:08:26;;;;;;;7.68;6.20;;;;;;;33.11;22.52;99046.97;4469113;32;35787;-78
2022/07/27 09:10:59;;;;;;;10.15;6.18;;;;;;;33.76;22.67;99046.97;4468467;32;34451;-78
2022/07/27 09:13:32;;;;;;;9.20;6.15;;;;;;;32.51;23.98;99054.28;4469215;32;33302;-78
2022/07/27 09:16:06;;;;;;;7.07;5.28;;;;;;;33.32;22.24;99050.03;4468247;32;34009;-77
2022/07/27 09:18:58;;;;;;;7.18;5.25;;;;;;;34.30;21.31;99056.22;4469139;32;35007;-78
2022/07/27 09:21:27;;;;;;;9.90;5.78;;;;;;;34.62;21.13;99051.66;4467447;32;34542;-78
2022/07/27 09:24:07;;;;;;;7.03;5.55;;;;;;;34.10;22.49;99050.38;4469097;32;34310;-78
2022/07/27 09:27:03;;;;;;;9.13;5.97;;;;;;;34.02;23.25;99051.25;4468121;32;34666;-78
2022/07/27 09:29:34;;;;;;;7.97;6.18;;;;;;;34.91;19.81;99056.41;4467344;32;35113;-78
2022/07/27 09:32:15;;;;;;;8.10;6.43;;;;;;;34.97;20.24;99049.44;4455068;32;34453;-78
2022/07/27 09:34:44;;;;;;;7.70;6.45;;;;;;;34.07;22.12;99046.16;4470330;32;33413;-79
2022/07/27 09:37:22;;;;;;;8.45;5.82;;;;;;;34.61;22.22;99041.84;4470337;32;34014;-78
2022/07/27 09:40:09;;;;;;;9.45;5.32;;;;;;;34.37;22.10;99049.09;4469646;32;35237;-78
2022/07/27 09:42:37;;;;;;;6.75;5.35;;;;;;;34.07;20.32;99038.06;4457316;32;34515;-78
2022/07/27 09:45:28;;;;;;;8.15;5.95;;;;;;;34.13;20.99;99045.47;4453060;32;32312;-78
2022/07/27 09:48:19;;;;;;;8.23;5.32;;;;;;;34.04;20.44;99043.81;4486896;32;34817;-78
2022/07/27 09:50:53;;;;;;;7.40;4.90;;;;;;;35.00;21.42;99039.06;4462258;32;34570;-78
2022/07/27 09:53:31;;;;;;;10.63;5.32;;;;;;;34.92;21.40;99048.09;4470296;32;34507;-78
2022/07/27 09:56:12;;;;;;;6.87;5.03;;;;;;;34.80;20.98;99044.12;4458067;32;34304;-78
2022/07/27 09:58:43;;;;;;;7.78;5.45;;;;;;;34.66;19.66;99042.16;4470268;32;33197;-78
2022/07/27 10:01:23;;;;;;;8.15;5.28;;;;;;;34.58;21.67;99044.94;4456441;32;34883;-78
2022/07/27 10:03:53;;;;;;;5.78;4.75;;;;;;;35.02;19.87;99041.59;4457014;32;34428;-78
2022/07/27 10:06:23;;;;;;;10.07;4.60;;;;;;;34.55;20.61;99049.66;4469235;32;33633;-78
2022/07/27 10:08:54;;;;;;;6.72;4.43;;;;;;;35.58;19.08;99042.13;4461334;32;34716;-78
2022/07/27 10:11:23;;;;;;;5.93;4.82;;;;;;;34.86;20.16;99039.88;4458286;32;35760;-78
2022/07/27 10:13:53;;;;;;;6.57;4.90;;;;;;;33.78;21.48;99044.09;4456479;32;34337;-78
2022/07/27 10:16:27;;;;;;;5.72;4.75;;;;;;;35.17;19.09;99047.87;4456552;32;32801;-79
2022/07/27 10:19:04;;;;;;;7.37;5.10;;;;;;;34.58;19.92;99044.94;4457072;32;33966;-78
2022/07/27 10:21:37;;;;;;;6.40;4.80;;;;;;;34.35;21.97;99032.22;4469908;32;35155;-78
2022/07/27 10:24:08;;;;;;;6.35;4.50;;;;;;;34.52;21.50;99036.50;4471183;32;33617;-78
2022/07/27 10:26:39;;;;;;;5.55;4.12;;;;;;;34.07;20.98;99032.66;4470068;32;33430;-78
2022/07/27 10:29:13;;;;;;;7.00;4.97;;;;;;;34.99;20.09;99033.84;4444090;32;33056;-78
2022/07/27 10:31:51;;;;;;;7.37;5.37;;;;;;;36.09;19.91;99027.00;4469876;32;35244;-78
2022/07/27 10:34:37;;;;;;;8.77;4.60;;;;;;;36.33;19.60;99026.69;4470605;32;34286;-78
2022/07/27 10:37:10;;;;;;;8.05;5.40;;;;;;;36.70;19.28;99018.56;4470741;32;33418;-78
2022/07/27 10:39:49;;;;;;;6.90;4.30;;;;;;;35.12;19.75;99028.62;4469762;32;34709;-78
2022/07/27 10:42:23;;;;;;;6.12;4.22;;;;;;;33.88;22.04;99022.25;4469921;32;35332;-79
2022/07/27 10:45:02;;;;;;;8.55;5.07;;;;;;;35.98;20.57;99026.44;4469783;32;34539;-78
2022/07/27 10:47:38;;;;;;;5.37;4.60;;;;;;;36.69;19.92;99017.75;4469769;32;33514;-78
2022/07/27 10:50:15;;;;;;;7.75;4.68;;;;;;;35.91;19.62;99014.69;4469809;32;34883;-79
2022/07/27 10:52:43;;;;;;;6.68;5.03;;;;;;;36.35;19.43;99016.50;4468636;32;35833;-80
2022/07/27 10:55:30;;;;;;;6.10;4.60;;;;;;;36.18;19.90;99015.88;4469502;32;35173;-77
2022/07/27 10:58:01;;;;;;;7.07;5.12;;;;;;;36.01;19.32;99009.81;4469660;32;33405;-79
2022/07/27 11:00:47;;;;;;;8.68;5.35;;;;;;;35.71;18.65;99024.41;4468705;32;34083;-79
2022/07/27 11:03:34;;;;;;;7.20;4.70;;;;;;;36.37;17.76;99016.31;4470283;32;35884;-81
2022/07/27 11:06:24;;;;;;;8.35;5.00;;;;;;;36.56;18.70;99007.53;4469406;32;34508;-78
2022/07/27 11:09:04;;;;;;;7.68;5.30;;;;;;;36.28;17.56;99012.03;4457997;32;33462;-79
2022/07/27 11:11:52;;;;;;;6.65;5.10;;;;;;;36.63;17.54;99002.19;4457720;32;34733;-80
2022/07/27 11:14:21;;;;;;;5.82;4.10;;;;;;;35.53;18.62;99011.19;4469801;32;35924;-78
2022/07/27 11:16:58;;;;;;;6.47;4.75;;;;;;;35.01;19.53;99002.84;4457591;32;35421;-77
2022/07/27 11:19:58;;;;;;;8.73;5.20;;;;;;;35.60;19.30;99001.31;4447019;32;33510;-78
2022/07/27 11:22:38;;;;;;;6.72;4.93;;;;;;;35.35;19.26;98992.59;4469086;32;33764;-78
2022/07/27 11:25:26;;;;;;;5.90;4.75;;;;;;;34.28;19.66;98993.41;4465227;32;35894;-77
2022/07/27 11:27:55;;;;;;;6.80;4.50;;;;;;;35.00;19.81;98995.78;4470240;32;34483;-79
2022/07/27 11:30:29;;;;;;;5.90;4.12;;;;;;;34.97;19.25;98990.72;4454388;32;31931;-77
2022/07/27 11:33:03;;;;;;;6.10;4.45;;;;;;;35.11;19.86;98980.97;4470019;32;34020;-80
2022/07/27 11:35:32;;;;;;;5.80;4.28;;;;;;;34.84;20.26;98985.09;4467606;32;35101;-77
2022/07/27 11:38:03;;;;;;;5.45;4.28;;;;;;;34.11;20.09;98989.91;4462393;32;34459;-78
2022/07/27 11:40:47;;;;;;;5.60;4.12;;;;;;;34.09;21.80;98986.53;4469253;32;33407;-78
2022/07/27 11:43:40;;;;;;;7.50;4.15;;;;;;;34.13;20.14;98987.87;4469913;32;34034;-78
2022/07/27 11:46:21;;;;;;;6.75;4.87;;;;;;;34.67;21.56;98985.19;4464465;32;35968;-77
2022/07/27 11:49:00;;;;;;;5.55;4.65;;;;;;;35.93;20.66;98980.09;4472239;32;35159;-78
2022/07/27 11:51:44;;;;;;;6.62;4.90;;;;;;;34.24;20.77;98989.34;4468295;32;34289;-78